createdAt,value
2018-05-09T00:00:59.280Z,71.20
2018-05-09T00:01:59.272Z,70.91
2018-05-09T00:02:59.271Z,70.91
2018-05-09T00:03:59.272Z,71.39
2018-05-09T00:04:59.273Z,71.48
2018-05-09T00:05:59.274Z,71.30
2018-05-09T00:06:59.278Z,71.48
2018-05-09T00:07:59.277Z,71.48
2018-05-09T00:08:59.279Z,71.39
2018-05-09T00:09:59.278Z,71.58
2018-05-09T00:10:59.279Z,71.39
2018-05-09T00:11:59.392Z,71.39
2018-05-09T00:12:59.282Z,71.39
2018-05-09T00:13:59.282Z,71.48
2018-05-09T00:14:59.285Z,71.58
2018-05-09T00:15:59.288Z,71.30
2018-05-09T00:16:59.289Z,71.48
2018-05-09T00:17:59.285Z,71.20
2018-05-09T00:18:59.289Z,71.48
2018-05-09T00:19:59.287Z,71.11
2018-05-09T00:20:59.288Z,72.06
2018-05-09T00:21:59.290Z,71.87
2018-05-09T00:22:59.290Z,71.87
2018-05-09T00:23:59.294Z,71.87
2018-05-09T00:24:59.291Z,72.06
2018-05-09T00:25:59.293Z,71.77
2018-05-09T00:26:59.295Z,72.34
2018-05-09T00:27:59.295Z,72.63
2018-05-09T00:28:59.299Z,72.44
2018-05-09T00:29:59.299Z,72.44
2018-05-09T00:30:59.297Z,72.25
2018-05-09T00:31:59.303Z,72.44
2018-05-09T00:32:59.298Z,72.25
2018-05-09T00:33:59.299Z,72.25
2018-05-09T00:34:59.301Z,72.02
2018-05-09T00:35:59.300Z,72.25
2018-05-09T00:36:59.300Z,72.54
2018-05-09T00:37:59.302Z,72.12
2018-05-09T00:38:59.311Z,72.79
2018-05-09T00:39:59.303Z,72.69
2018-05-09T00:40:59.305Z,72.79
2018-05-09T00:41:59.305Z,72.98
2018-05-09T00:42:59.304Z,72.88
2018-05-09T00:43:59.304Z,73.08
2018-05-09T00:44:59.308Z,73.27
2018-05-09T00:45:59.311Z,73.65
2018-05-09T00:46:59.313Z,73.55
2018-05-09T00:47:59.308Z,73.46
2018-05-09T00:48:59.310Z,73.55
2018-05-09T00:49:59.310Z,73.75
2018-05-09T00:50:59.313Z,73.27
2018-05-09T00:51:59.311Z,73.36
2018-05-09T00:52:59.321Z,73.46
2018-05-09T00:53:59.314Z,73.17
2018-05-09T00:54:59.312Z,73.27
2018-05-09T00:55:59.315Z,73.46
2018-05-09T00:56:59.315Z,73.08
2018-05-09T00:57:59.401Z,73.46
2018-05-09T00:58:59.315Z,73.27
2018-05-09T00:59:59.317Z,73.55
2018-05-09T01:00:59.325Z,73.46
2018-05-09T01:01:59.319Z,74.04
2018-05-09T01:02:59.330Z,74.13
2018-05-09T01:03:59.319Z,74.32
2018-05-09T01:04:59.319Z,74.32
2018-05-09T01:05:59.321Z,74.13
2018-05-09T01:06:59.320Z,74.04
2018-05-09T01:07:59.320Z,74.32
2018-05-09T01:08:59.325Z,74.61
2018-05-09T01:09:59.324Z,74.32
2018-05-09T01:10:59.322Z,74.80
2018-05-09T01:11:59.338Z,73.84
2018-05-09T01:12:59.328Z,74.41
2018-05-09T01:13:59.326Z,74.04
2018-05-09T01:14:59.324Z,74.38
2018-05-09T01:15:59.329Z,74.66
2018-05-09T01:16:59.325Z,74.66
2018-05-09T01:17:59.325Z,74.76
2018-05-09T01:18:59.330Z,74.85
2018-05-09T01:19:59.327Z,74.48
2018-05-09T01:20:59.327Z,74.57
2018-05-09T01:21:59.328Z,75.14
2018-05-09T01:22:59.326Z,74.85
2018-05-09T01:23:59.328Z,75.05
2018-05-09T01:24:59.328Z,75.52
2018-05-09T01:25:59.332Z,75.34
2018-05-09T01:26:59.328Z,75.52
2018-05-09T01:27:59.344Z,75.52
2018-05-09T01:28:59.331Z,75.52
2018-05-09T01:29:59.337Z,76.10
2018-05-09T01:30:59.330Z,76.00
2018-05-09T01:31:59.331Z,76.00
2018-05-09T01:32:59.332Z,76.20
2018-05-09T01:33:59.331Z,76.20
2018-05-09T01:34:59.338Z,76.20
2018-05-09T01:35:59.332Z,76.20
2018-05-09T01:36:59.337Z,76.57
2018-05-09T01:37:59.334Z,76.10
2018-05-09T01:38:59.331Z,76.67
2018-05-09T01:39:59.331Z,76.39
2018-05-09T01:40:59.338Z,76.00
2018-05-09T01:41:59.337Z,76.00
2018-05-09T01:42:59.687Z,76.48
2018-05-09T01:43:59.339Z,76.00
2018-05-09T01:44:59.339Z,75.91
2018-05-09T01:45:59.337Z,75.91
2018-05-09T01:46:59.339Z,76.00
2018-05-09T01:47:59.336Z,76.20
2018-05-09T01:48:59.348Z,76.00
2018-05-09T01:49:59.336Z,76.00
2018-05-09T01:50:59.334Z,76.39
2018-05-09T01:51:59.344Z,76.39
2018-05-09T01:52:59.343Z,76.39
2018-05-09T01:53:59.340Z,76.39
2018-05-09T01:54:59.370Z,76.67
2018-05-09T01:55:59.335Z,76.39
2018-05-09T01:56:59.337Z,76.57
2018-05-09T01:57:59.334Z,76.57
2018-05-09T01:58:59.340Z,76.67
2018-05-09T01:59:59.336Z,76.39
2018-05-09T02:00:59.336Z,76.86
2018-05-09T02:01:59.334Z,76.73
2018-05-09T02:02:59.354Z,77.11
2018-05-09T02:03:59.344Z,77.59
2018-05-09T02:04:59.334Z,77.50
2018-05-09T02:05:59.386Z,77.40
2018-05-09T02:06:59.335Z,77.11
2018-05-09T02:07:59.344Z,77.69
2018-05-09T02:08:59.334Z,77.59
2018-05-09T02:09:59.338Z,77.78
2018-05-09T02:10:59.334Z,77.97
2018-05-09T02:11:59.334Z,78.07
2018-05-09T02:12:59.334Z,78.07
2018-05-09T02:14:00.091Z,77.87
2018-05-09T02:14:59.342Z,77.97
2018-05-09T02:15:59.335Z,77.87
2018-05-09T02:16:59.332Z,77.87
2018-05-09T02:17:59.333Z,77.87
2018-05-09T02:18:59.334Z,77.87
2018-05-09T02:19:59.333Z,78.55
2018-05-09T02:20:59.336Z,77.87
2018-05-09T02:21:59.335Z,78.74
2018-05-09T02:22:59.345Z,78.26
2018-05-09T02:23:59.397Z,78.55
2018-05-09T02:24:59.338Z,78.16
2018-05-09T02:25:59.334Z,78.16
2018-05-09T02:26:59.336Z,78.07
2018-05-09T02:27:59.337Z,78.83
2018-05-09T02:28:59.331Z,78.16
2018-05-09T02:29:59.333Z,78.36
2018-05-09T02:30:59.335Z,78.36
2018-05-09T02:31:59.341Z,77.97
2018-05-09T02:32:59.347Z,78.16
2018-05-09T02:33:59.337Z,78.16
2018-05-09T02:34:59.333Z,78.26
2018-05-09T02:35:59.339Z,78.07
2018-05-09T02:36:59.342Z,78.74
2018-05-09T02:37:59.331Z,78.83
2018-05-09T02:38:59.329Z,78.74
2018-05-09T02:39:59.338Z,78.70
2018-05-09T02:40:59.333Z,78.74
2018-05-09T02:41:59.331Z,79.02
2018-05-09T02:42:59.333Z,79.02
2018-05-09T02:43:59.332Z,78.83
2018-05-09T02:44:59.329Z,78.79
2018-05-09T02:45:59.330Z,78.74
2018-05-09T02:46:59.344Z,78.74
2018-05-09T02:47:59.329Z,78.64
2018-05-09T02:48:59.328Z,79.02
2018-05-09T02:49:59.437Z,79.17
2018-05-09T02:50:59.336Z,78.55
2018-05-09T02:51:59.354Z,78.93
2018-05-09T02:52:59.327Z,79.27
2018-05-09T02:53:59.327Z,79.17
2018-05-09T02:54:59.326Z,78.99
2018-05-09T02:55:59.325Z,79.17
2018-05-09T02:56:59.326Z,78.99
2018-05-09T02:57:59.325Z,79.08
2018-05-09T02:58:59.324Z,79.56
2018-05-09T02:59:59.323Z,79.56
2018-05-09T03:00:59.323Z,79.75
2018-05-09T03:01:59.323Z,79.75
2018-05-09T03:02:59.328Z,79.94
2018-05-09T03:03:59.323Z,79.75
2018-05-09T03:04:59.322Z,80.04
2018-05-09T03:05:59.323Z,80.13
2018-05-09T03:06:59.324Z,79.75
2018-05-09T03:07:59.320Z,79.65
2018-05-09T03:08:59.319Z,79.46
2018-05-09T03:09:59.318Z,80.32
2018-05-09T03:10:59.322Z,80.32
2018-05-09T03:11:59.324Z,80.22
2018-05-09T03:12:59.316Z,80.80
2018-05-09T03:13:59.316Z,80.32
2018-05-09T03:14:59.314Z,80.70
2018-05-09T03:15:59.315Z,80.70
2018-05-09T03:16:59.314Z,80.32
2018-05-09T03:17:59.315Z,80.51
2018-05-09T03:18:59.312Z,80.80
2018-05-09T03:19:59.312Z,80.61
2018-05-09T03:20:59.315Z,80.51
2018-05-09T03:21:59.310Z,80.41
2018-05-09T03:22:59.311Z,81.09
2018-05-09T03:23:59.309Z,81.04
2018-05-09T03:24:59.308Z,80.61
2018-05-09T03:25:59.308Z,80.80
2018-05-09T03:26:59.310Z,80.99
2018-05-09T03:27:59.307Z,80.70
2018-05-09T03:28:59.307Z,80.99
2018-05-09T03:29:59.306Z,80.70
2018-05-09T03:30:59.365Z,81.09
2018-05-09T03:31:59.305Z,81.27
2018-05-09T03:32:59.304Z,81.18
2018-05-09T03:33:59.303Z,81.85
2018-05-09T03:34:59.304Z,80.99
2018-05-09T03:35:59.301Z,81.09
2018-05-09T03:36:59.304Z,80.99
2018-05-09T03:37:59.304Z,81.09
2018-05-09T03:38:59.299Z,81.09
2018-05-09T03:39:59.298Z,80.80
2018-05-09T03:40:59.299Z,81.18
2018-05-09T03:41:59.299Z,80.61
2018-05-09T03:42:59.296Z,81.09
2018-05-09T03:43:59.296Z,81.09
2018-05-09T03:44:59.295Z,80.32
2018-05-09T03:45:59.295Z,80.99
2018-05-09T03:46:59.293Z,80.70
2018-05-09T03:47:59.341Z,81.18
2018-05-09T03:48:59.301Z,80.80
2018-05-09T03:49:59.296Z,81.14
2018-05-09T03:50:59.297Z,81.90
2018-05-09T03:51:59.291Z,81.43
2018-05-09T03:52:59.292Z,81.81
2018-05-09T03:53:59.292Z,81.33
2018-05-09T03:54:59.296Z,81.52
2018-05-09T03:55:59.292Z,81.04
2018-05-09T03:56:59.289Z,81.90
2018-05-09T03:57:59.286Z,82.29
2018-05-09T03:58:59.286Z,81.62
2018-05-09T03:59:59.286Z,81.33
2018-05-09T04:00:59.287Z,81.04
2018-05-09T04:01:59.284Z,81.24
2018-05-09T04:02:59.282Z,81.81
2018-05-09T04:03:59.284Z,81.04
2018-05-09T04:04:59.286Z,81.14
2018-05-09T04:05:59.284Z,81.62
2018-05-09T04:06:59.279Z,81.43
2018-05-09T04:07:59.278Z,81.81
2018-05-09T04:08:59.277Z,81.33
2018-05-09T04:09:59.278Z,81.71
2018-05-09T04:10:59.278Z,81.04
2018-05-09T04:11:59.276Z,81.62
2018-05-09T04:12:59.275Z,81.04
2018-05-09T04:13:59.273Z,81.62
2018-05-09T04:14:59.272Z,81.24
2018-05-09T04:15:59.271Z,81.14
2018-05-09T04:16:59.662Z,80.90
2018-05-09T04:17:59.269Z,81.18
2018-05-09T04:18:59.270Z,81.14
2018-05-09T04:19:59.272Z,81.09
2018-05-09T04:20:59.301Z,81.09
2018-05-09T04:21:59.275Z,81.09
2018-05-09T04:22:59.266Z,81.09
2018-05-09T04:23:59.265Z,81.09
2018-05-09T04:24:59.265Z,80.90
2018-05-09T04:25:59.266Z,81.09
2018-05-09T04:26:59.262Z,80.99
2018-05-09T04:27:59.262Z,80.99
2018-05-09T04:28:59.265Z,81.18
2018-05-09T04:29:59.263Z,80.90
2018-05-09T04:30:59.262Z,80.99
2018-05-09T04:31:59.265Z,80.90
2018-05-09T04:32:59.259Z,80.99
2018-05-09T04:33:59.261Z,81.18
2018-05-09T04:34:59.260Z,81.18
2018-05-09T04:35:59.258Z,81.04
2018-05-09T04:36:59.255Z,82.04
2018-05-09T04:37:59.256Z,81.43
2018-05-09T04:38:59.254Z,81.18
2018-05-09T04:39:59.253Z,81.85
2018-05-09T04:40:59.254Z,81.18
2018-05-09T04:41:59.310Z,81.27
2018-05-09T04:42:59.252Z,81.04
2018-05-09T04:43:59.252Z,81.62
2018-05-09T04:44:59.251Z,81.71
2018-05-09T04:45:59.251Z,81.47
2018-05-09T04:46:59.251Z,81.95
2018-05-09T04:48:00.089Z,81.56
2018-05-09T04:48:59.247Z,81.95
2018-05-09T04:49:59.246Z,81.47
2018-05-09T04:50:59.244Z,82.04
2018-05-09T04:51:59.244Z,82.04
2018-05-09T04:52:59.245Z,81.56
2018-05-09T04:53:59.243Z,81.66
2018-05-09T04:54:59.244Z,81.66
2018-05-09T04:55:59.239Z,81.47
2018-05-09T04:56:59.243Z,81.66
2018-05-09T04:57:59.241Z,82.04
2018-05-09T04:58:59.237Z,81.18
2018-05-09T04:59:59.238Z,81.66
2018-05-09T05:00:59.239Z,81.09
2018-05-09T05:01:59.238Z,80.90
2018-05-09T05:02:59.237Z,81.18
2018-05-09T05:03:59.238Z,80.99
2018-05-09T05:04:59.235Z,81.09
2018-05-09T05:05:59.236Z,80.90
2018-05-09T05:06:59.297Z,81.27
2018-05-09T05:07:59.237Z,80.61
2018-05-09T05:08:59.235Z,80.55
2018-05-09T05:09:59.235Z,80.07
2018-05-09T05:10:59.230Z,79.50
2018-05-09T05:11:59.229Z,79.25
2018-05-09T05:12:59.230Z,79.35
2018-05-09T05:13:59.230Z,78.01
2018-05-09T05:14:59.229Z,78.01
2018-05-09T05:15:59.230Z,76.71
2018-05-09T05:16:59.228Z,75.95
2018-05-09T05:17:59.229Z,75.37
2018-05-09T05:18:59.228Z,75.37
2018-05-09T05:19:59.229Z,75.47
2018-05-09T05:20:59.229Z,75.56
2018-05-09T05:21:59.237Z,75.27
2018-05-09T05:22:59.250Z,74.90
2018-05-09T05:23:59.231Z,74.65
2018-05-09T05:24:59.235Z,74.84
2018-05-09T05:25:59.230Z,74.45
2018-05-09T05:26:59.240Z,73.82
2018-05-09T05:27:59.251Z,72.77
2018-05-09T05:28:59.235Z,72.13
2018-05-09T05:29:59.234Z,71.08
2018-05-09T05:30:59.236Z,70.06
2018-05-09T05:31:59.234Z,69.58
2018-05-09T05:32:59.237Z,69.77
2018-05-09T05:33:59.237Z,69.48
2018-05-09T05:34:59.239Z,68.85
2018-05-09T05:35:59.239Z,66.77
2018-05-09T05:36:59.241Z,64.63
2018-05-09T05:37:59.243Z,64.12
2018-05-09T05:38:59.261Z,64.22
2018-05-09T05:39:59.264Z,64.56
2018-05-09T05:40:59.247Z,64.95
2018-05-09T05:41:59.247Z,66.19
2018-05-09T05:42:59.249Z,67.02
2018-05-09T05:43:59.253Z,67.50
2018-05-09T05:44:59.368Z,68.08
2018-05-09T05:45:59.306Z,68.91
2018-05-09T05:46:59.255Z,68.91
2018-05-09T05:47:59.258Z,69.39
2018-05-09T05:48:59.260Z,69.20
2018-05-09T05:49:59.270Z,69.39
2018-05-09T05:50:59.264Z,69.87
2018-05-09T05:51:59.346Z,69.58
2018-05-09T05:52:59.276Z,68.75
2018-05-09T05:53:59.271Z,68.08
2018-05-09T05:54:59.272Z,68.46
2018-05-09T05:55:59.364Z,68.85
2018-05-09T05:56:59.275Z,68.81
2018-05-09T05:57:59.278Z,69.29
2018-05-09T05:58:59.278Z,69.48
2018-05-09T05:59:59.278Z,70.50
2018-05-09T06:00:59.281Z,70.31
2018-05-09T06:01:59.282Z,70.89
2018-05-09T06:02:59.284Z,70.98
2018-05-09T06:03:59.286Z,71.66
2018-05-09T06:04:59.288Z,71.46
2018-05-09T06:05:59.306Z,71.56
2018-05-09T06:06:59.289Z,71.37
2018-05-09T06:07:59.374Z,71.56
2018-05-09T06:08:59.293Z,71.37
2018-05-09T06:09:59.297Z,70.98
2018-05-09T06:10:59.300Z,71.02
2018-05-09T06:11:59.298Z,71.02
2018-05-09T06:12:59.301Z,70.92
2018-05-09T06:13:59.306Z,70.92
2018-05-09T06:14:59.301Z,70.83
2018-05-09T06:15:59.311Z,71.11
2018-05-09T06:16:59.322Z,70.76
2018-05-09T06:17:59.306Z,70.44
2018-05-09T06:18:59.308Z,70.76
2018-05-09T06:19:59.359Z,70.57
2018-05-09T06:20:59.315Z,70.29
2018-05-09T06:21:59.312Z,69.52
2018-05-09T06:22:59.313Z,69.81
2018-05-09T06:23:59.383Z,69.42
2018-05-09T06:24:59.318Z,69.81
2018-05-09T06:25:59.356Z,69.23
2018-05-09T06:26:59.321Z,69.23
2018-05-09T06:27:59.332Z,69.81
2018-05-09T06:28:59.334Z,69.56
2018-05-09T06:29:59.335Z,68.79
2018-05-09T06:30:59.340Z,69.07
2018-05-09T06:31:59.343Z,68.69
2018-05-09T06:32:59.335Z,68.88
2018-05-09T06:33:59.343Z,68.69
2018-05-09T06:34:59.338Z,69.17
2018-05-09T06:35:59.340Z,69.13
2018-05-09T06:36:59.342Z,69.17
2018-05-09T06:37:59.346Z,69.26
2018-05-09T06:38:59.360Z,69.13
2018-05-09T06:39:59.348Z,69.71
2018-05-09T06:40:59.535Z,69.42
2018-05-09T06:41:59.380Z,70.38
2018-05-09T06:42:59.442Z,70.67
2018-05-09T06:43:59.355Z,70.38
2018-05-09T06:44:59.357Z,70.00
2018-05-09T06:46:00.491Z,69.62
2018-05-09T06:46:59.366Z,70.67
2018-05-09T06:47:59.365Z,70.51
2018-05-09T06:48:59.366Z,69.52
2018-05-09T06:49:59.465Z,69.90
2018-05-09T06:50:59.734Z,69.42
2018-05-09T06:51:59.371Z,69.33
2018-05-09T06:52:59.372Z,69.71
2018-05-09T06:53:59.375Z,69.62
2018-05-09T06:54:59.375Z,69.90
2018-05-09T06:55:59.382Z,69.62
2018-05-09T06:56:59.387Z,69.62
2018-05-09T06:57:59.382Z,69.71
2018-05-09T06:58:59.438Z,70.57
2018-05-09T06:59:59.433Z,70.00
2018-05-09T07:00:59.388Z,70.57
2018-05-09T07:01:59.390Z,70.57
2018-05-09T07:02:59.435Z,70.57
2018-05-09T07:03:59.393Z,70.51
2018-05-09T07:04:59.395Z,70.48
2018-05-09T07:05:59.413Z,70.19
2018-05-09T07:06:59.399Z,70.70
2018-05-09T07:07:59.438Z,70.03
2018-05-09T07:08:59.409Z,70.00
2018-05-09T07:09:59.406Z,69.46
2018-05-09T07:10:59.433Z,69.84
2018-05-09T07:11:59.414Z,69.07
2018-05-09T07:12:59.413Z,68.98
2018-05-09T07:13:59.412Z,68.79
2018-05-09T07:14:59.414Z,68.15
2018-05-09T07:15:59.422Z,67.29
2018-05-09T07:16:59.421Z,67.47
2018-05-09T07:17:59.423Z,66.90
2018-05-09T07:18:59.429Z,67.29
2018-05-09T07:19:59.439Z,67.00
2018-05-09T07:20:59.433Z,66.03
2018-05-09T07:22:00.138Z,66.80
2018-05-09T07:22:59.431Z,65.97
2018-05-09T07:23:59.435Z,66.36
2018-05-09T07:24:59.439Z,65.59
2018-05-09T07:25:59.439Z,65.01
2018-05-09T07:26:59.457Z,65.49
2018-05-09T07:27:59.445Z,64.72
2018-05-09T07:28:59.446Z,64.95
2018-05-09T07:29:59.497Z,64.56
2018-05-09T07:31:00.192Z,64.47
2018-05-09T07:31:59.466Z,64.09
2018-05-09T07:32:59.458Z,63.60
2018-05-09T07:33:59.459Z,64.02
2018-05-09T07:34:59.462Z,63.25
2018-05-09T07:35:59.466Z,63.54
2018-05-09T07:36:59.468Z,62.96
2018-05-09T07:37:59.473Z,63.06
2018-05-09T07:38:59.481Z,63.06
2018-05-09T07:39:59.478Z,62.77
2018-05-09T07:40:59.481Z,62.80
2018-05-09T07:41:59.486Z,62.23
2018-05-09T07:42:59.487Z,62.13
2018-05-09T07:43:59.490Z,61.74
2018-05-09T07:44:59.494Z,61.84
2018-05-09T07:45:59.498Z,61.77
2018-05-09T07:46:59.501Z,61.29
2018-05-09T07:47:59.581Z,61.10
2018-05-09T07:48:59.508Z,60.81
2018-05-09T07:49:59.536Z,60.42
2018-05-09T07:50:59.543Z,60.84
2018-05-09T07:51:59.518Z,60.55
2018-05-09T07:52:59.545Z,59.97
2018-05-09T07:53:59.530Z,60.07
2018-05-09T07:54:59.533Z,59.69
2018-05-09T07:55:59.538Z,59.20
2018-05-09T07:56:59.543Z,59.33
2018-05-09T07:57:59.541Z,58.95
2018-05-09T07:58:59.554Z,58.37
2018-05-09T07:59:59.683Z,58.47
2018-05-09T08:00:59.552Z,58.27
2018-05-09T08:02:00.445Z,57.69
2018-05-09T08:02:59.612Z,57.89
2018-05-09T08:03:59.565Z,57.98
2018-05-09T08:04:59.576Z,57.89
2018-05-09T08:05:59.665Z,57.69
2018-05-09T08:06:59.582Z,58.56
2018-05-09T08:07:59.582Z,58.08
2018-05-09T08:08:59.586Z,58.75
2018-05-09T08:09:59.620Z,58.37
2018-05-09T08:10:59.593Z,58.75
2018-05-09T08:11:59.597Z,59.81
2018-05-09T08:12:59.600Z,59.72
2018-05-09T08:13:59.615Z,60.10
2018-05-09T08:14:59.612Z,60.87
2018-05-09T08:15:59.613Z,60.58
2018-05-09T08:16:59.618Z,61.45
2018-05-09T08:18:00.158Z,61.07
2018-05-09T08:18:59.627Z,60.77
2018-05-09T08:19:59.631Z,61.07
2018-05-09T08:20:59.634Z,60.58
2018-05-09T08:21:59.639Z,60.90
2018-05-09T08:22:59.641Z,60.03
2018-05-09T08:23:59.650Z,60.87
2018-05-09T08:24:59.671Z,61.16
2018-05-09T08:25:59.659Z,61.07
2018-05-09T08:26:59.657Z,61.16
2018-05-09T08:27:59.662Z,61.07
2018-05-09T08:28:59.673Z,61.10
2018-05-09T08:29:59.671Z,60.52
2018-05-09T08:30:59.675Z,61.10
2018-05-09T08:31:59.683Z,60.61
2018-05-09T08:32:59.684Z,60.71
2018-05-09T08:33:59.691Z,60.90
2018-05-09T08:34:59.717Z,60.42
2018-05-09T08:36:00.069Z,60.13
2018-05-09T08:36:59.700Z,60.90
2018-05-09T08:37:59.706Z,61.00
2018-05-09T08:38:59.716Z,61.00
2018-05-09T08:39:59.718Z,61.22
2018-05-09T08:40:59.722Z,60.74
2018-05-09T08:41:59.725Z,59.78
2018-05-09T08:42:59.734Z,60.16
2018-05-09T08:43:59.774Z,59.58
2018-05-09T08:44:59.734Z,59.68
2018-05-09T08:45:59.871Z,59.68
2018-05-09T08:46:59.744Z,60.45
2018-05-09T08:47:59.764Z,59.42
2018-05-09T08:48:59.753Z,58.65
2018-05-09T08:49:59.767Z,57.52
2018-05-09T08:51:01.533Z,56.84
2018-05-09T08:51:59.766Z,56.46
2018-05-09T08:52:59.772Z,56.68
2018-05-09T08:53:59.782Z,56.29
2018-05-09T08:54:59.783Z,55.93
2018-05-09T08:55:59.785Z,54.53
2018-05-09T08:56:59.794Z,53.23
2018-05-09T08:57:59.800Z,50.31
2018-05-09T08:58:59.805Z,47.66
2018-05-09T08:59:59.806Z,45.57
2018-05-09T09:00:59.812Z,42.78
2018-05-09T09:01:59.820Z,41.83
2018-05-09T09:02:59.830Z,41.65
2018-05-09T09:03:59.834Z,40.70
2018-05-09T09:04:59.841Z,39.08
2018-05-09T09:05:59.846Z,37.93
2018-05-09T09:06:59.855Z,37.27
2018-05-09T09:07:59.861Z,36.04
2018-05-09T09:08:59.874Z,35.48
2018-05-09T09:09:59.877Z,34.05
2018-05-09T09:10:59.882Z,33.07
2018-05-09T09:11:59.892Z,32.70
2018-05-09T09:12:59.939Z,32.58
2018-05-09T09:13:59.914Z,32.95
2018-05-09T09:14:59.933Z,33.62
2018-05-09T09:15:59.927Z,34.00
2018-05-09T09:16:59.941Z,33.34
2018-05-09T09:17:59.948Z,32.68
2018-05-09T09:19:00.019Z,32.50
2018-05-09T09:19:59.967Z,32.29
2018-05-09T09:20:59.978Z,32.48
2018-05-09T09:22:01.536Z,31.99
2018-05-09T09:23:00.000Z,31.42
2018-05-09T09:24:00.008Z,32.01
2018-05-09T09:25:00.018Z,31.24
2018-05-09T09:26:00.030Z,30.64
2018-05-09T09:27:00.042Z,30.65
2018-05-09T09:28:00.056Z,31.21
2018-05-09T09:29:00.063Z,31.14
2018-05-09T09:30:00.073Z,30.67
2018-05-09T09:31:00.084Z,29.33
2018-05-09T09:32:00.097Z,28.86
2018-05-09T09:33:00.107Z,27.98
2018-05-09T09:34:00.125Z,27.98
2018-05-09T09:35:00.131Z,28.39
2018-05-09T09:36:00.139Z,27.81
2018-05-09T09:37:00.169Z,26.56
2018-05-09T09:38:00.177Z,25.87
2018-05-09T09:39:00.178Z,25.20
2018-05-09T09:40:00.192Z,25.48
2018-05-09T09:41:00.210Z,26.45
2018-05-09T09:42:00.213Z,27.49
2018-05-09T09:43:00.225Z,29.02
2018-05-09T09:44:00.236Z,30.54
2018-05-09T09:45:00.251Z,32.06
2018-05-09T09:46:00.268Z,33.30
2018-05-09T09:47:00.308Z,34.63
2018-05-09T09:48:00.289Z,35.86
2018-05-09T09:49:00.332Z,37.00
2018-05-09T09:50:00.311Z,38.64
2018-05-09T09:51:00.320Z,39.69
2018-05-09T09:52:00.326Z,40.25
2018-05-09T09:53:00.334Z,40.52
2018-05-09T09:54:00.357Z,41.39
2018-05-09T09:55:00.408Z,41.86
2018-05-09T09:56:00.367Z,42.44
2018-05-09T09:57:00.377Z,42.71
2018-05-09T09:58:00.381Z,44.15
2018-05-09T09:59:00.392Z,44.24
2018-05-09T10:00:00.404Z,44.81
2018-05-09T10:01:00.407Z,44.81
2018-05-09T10:02:00.435Z,45.39
2018-05-09T10:03:00.426Z,46.24
2018-05-09T10:04:00.432Z,45.75
2018-05-09T10:05:00.443Z,45.34
2018-05-09T10:06:00.447Z,45.51
2018-05-09T10:07:00.765Z,45.71
2018-05-09T10:08:00.546Z,45.90
2018-05-09T10:09:00.469Z,46.00
2018-05-09T10:10:00.477Z,46.99
2018-05-09T10:11:00.482Z,46.51
2018-05-09T10:12:00.494Z,46.48
2018-05-09T10:13:00.512Z,46.67
2018-05-09T10:14:00.503Z,48.61
2018-05-09T10:15:00.519Z,49.37
2018-05-09T10:16:00.631Z,49.37
2018-05-09T10:17:00.524Z,49.85
2018-05-09T10:18:00.532Z,50.60
2018-05-09T10:19:00.536Z,49.54
2018-05-09T10:20:00.554Z,47.89
2018-05-09T10:21:00.552Z,48.11
2018-05-09T10:22:00.580Z,47.33
2018-05-09T10:23:00.566Z,46.19
2018-05-09T10:24:00.575Z,44.88
2018-05-09T10:25:00.584Z,43.98
2018-05-09T10:26:00.598Z,40.54
2018-05-09T10:27:00.732Z,37.60
2018-05-09T10:28:00.598Z,36.08
2018-05-09T10:29:00.607Z,35.63
2018-05-09T10:30:00.624Z,33.80
2018-05-09T10:31:00.627Z,32.86
2018-05-09T10:32:00.793Z,31.80
2018-05-09T10:33:00.641Z,30.82
2018-05-09T10:34:00.652Z,30.44
2018-05-09T10:35:00.660Z,29.68
2018-05-09T10:36:00.877Z,29.97
2018-05-09T10:37:00.685Z,29.30
2018-05-09T10:38:00.704Z,29.39
2018-05-09T10:39:00.702Z,28.81
2018-05-09T10:40:00.721Z,28.63
2018-05-09T10:41:00.730Z,27.95
2018-05-09T10:42:00.739Z,27.28
2018-05-09T10:43:00.747Z,26.70
2018-05-09T10:44:00.763Z,26.61
2018-05-09T10:45:00.771Z,27.18
2018-05-09T10:46:00.784Z,26.52
2018-05-09T10:47:00.844Z,26.34
2018-05-09T10:48:00.809Z,25.66
2018-05-09T10:49:00.824Z,25.28
2018-05-09T10:50:00.848Z,25.18
2018-05-09T10:51:00.846Z,24.90
2018-05-09T10:52:00.861Z,24.98
2018-05-09T10:53:00.881Z,25.18
2018-05-09T10:54:01.055Z,25.18
2018-05-09T10:55:00.916Z,25.37
2018-05-09T10:56:00.941Z,25.17
2018-05-09T10:57:00.928Z,25.94
2018-05-09T10:58:01.164Z,26.04
2018-05-09T10:59:00.958Z,26.82
2018-05-09T11:00:00.986Z,27.29
2018-05-09T11:01:00.986Z,27.67
2018-05-09T11:02:00.999Z,28.16
2018-05-09T11:03:01.029Z,27.31
2018-05-09T11:04:01.030Z,26.63
2018-05-09T11:05:01.050Z,26.81
2018-05-09T11:06:01.057Z,28.81
2018-05-09T11:07:01.067Z,31.00
2018-05-09T11:08:01.078Z,32.53
2018-05-09T11:09:01.092Z,34.26
2018-05-09T11:10:01.117Z,35.98
2018-05-09T11:11:01.118Z,35.96
2018-05-09T11:12:01.332Z,37.39
2018-05-09T11:13:01.142Z,39.20
2018-05-09T11:14:01.163Z,40.03
2018-05-09T11:15:01.162Z,40.81
2018-05-09T11:16:01.176Z,39.88
2018-05-09T11:17:01.207Z,39.78
2018-05-09T11:18:01.195Z,37.70
2018-05-09T11:19:01.207Z,36.47
2018-05-09T11:20:01.216Z,35.69
2018-05-09T11:21:01.227Z,36.35
2018-05-09T11:22:01.241Z,36.82
2018-05-09T11:23:01.248Z,37.15
2018-05-09T11:24:01.256Z,36.94
2018-05-09T11:25:01.267Z,36.76
2018-05-09T11:26:01.278Z,34.88
2018-05-09T11:27:01.290Z,33.45
2018-05-09T11:28:01.307Z,31.52
2018-05-09T11:29:01.760Z,30.74
2018-05-09T11:30:01.321Z,31.98
2018-05-09T11:31:01.337Z,32.73
2018-05-09T11:32:01.344Z,34.06
2018-05-09T11:33:01.350Z,34.81
2018-05-09T11:34:01.380Z,33.79
2018-05-09T11:35:01.369Z,32.17
2018-05-09T11:36:01.386Z,30.74
2018-05-09T11:37:01.392Z,29.97
2018-05-09T11:38:01.402Z,28.82
2018-05-09T11:39:01.418Z,28.06
2018-05-09T11:40:01.438Z,26.80
2018-05-09T11:41:01.435Z,25.07
2018-05-09T11:42:01.446Z,24.79
2018-05-09T11:43:01.470Z,24.11
2018-05-09T11:44:02.125Z,24.22
2018-05-09T11:45:01.481Z,24.04
2018-05-09T11:46:01.500Z,23.17
2018-05-09T11:47:01.836Z,23.54
2018-05-09T11:48:01.521Z,25.55
2018-05-09T11:49:01.534Z,27.56
2018-05-09T11:50:01.740Z,29.48
2018-05-09T11:51:01.572Z,30.90
2018-05-09T11:52:01.942Z,32.52
2018-05-09T11:53:01.787Z,33.50
2018-05-09T11:54:01.594Z,33.87
2018-05-09T11:55:01.607Z,34.61
2018-05-09T11:56:01.621Z,35.30
2018-05-09T11:57:01.627Z,35.30
2018-05-09T11:58:01.639Z,35.20
2018-05-09T11:59:01.667Z,35.49
2018-05-09T12:00:02.123Z,35.86
2018-05-09T12:01:01.673Z,35.75
2018-05-09T12:02:01.680Z,35.83
2018-05-09T12:03:01.689Z,36.20
2018-05-09T12:04:01.701Z,36.98
2018-05-09T12:05:01.713Z,37.35
2018-05-09T12:06:01.738Z,37.16
2018-05-09T12:07:01.731Z,36.85
2018-05-09T12:08:01.741Z,36.55
2018-05-09T12:09:01.745Z,36.94
2018-05-09T12:10:01.768Z,36.65
2018-05-09T12:11:01.762Z,36.85
2018-05-09T12:12:01.772Z,37.14
2018-05-09T12:13:01.791Z,36.85
2018-05-09T12:14:01.792Z,37.62
2018-05-09T12:15:01.804Z,39.28
2018-05-09T12:16:01.874Z,39.84
2018-05-09T12:17:01.835Z,40.34
2018-05-09T12:18:01.823Z,40.25
2018-05-09T12:19:01.831Z,40.54
2018-05-09T12:20:01.842Z,40.44
2018-05-09T12:21:01.848Z,40.44
2018-05-09T12:22:01.868Z,40.62
2018-05-09T12:23:01.876Z,40.91
2018-05-09T12:24:01.870Z,41.10
2018-05-09T12:25:01.879Z,41.10
2018-05-09T12:26:01.887Z,41.57
2018-05-09T12:27:01.895Z,41.28
2018-05-09T12:28:01.903Z,42.05
2018-05-09T12:29:01.911Z,41.74
2018-05-09T12:30:01.944Z,42.33
2018-05-09T12:31:02.526Z,42.23
2018-05-09T12:32:01.935Z,42.03
2018-05-09T12:33:01.940Z,42.33
2018-05-09T12:34:01.948Z,41.84
2018-05-09T12:35:01.956Z,42.23
2018-05-09T12:36:01.962Z,42.61
2018-05-09T12:37:01.970Z,42.71
2018-05-09T12:38:01.980Z,42.69
2018-05-09T12:39:01.986Z,43.27
2018-05-09T12:40:02.008Z,44.24
2018-05-09T12:41:02.008Z,44.15
2018-05-09T12:42:02.012Z,44.81
2018-05-09T12:43:02.012Z,45.39
2018-05-09T12:44:02.031Z,45.00
2018-05-09T12:45:02.027Z,44.90
2018-05-09T12:46:02.041Z,45.78
2018-05-09T12:47:02.045Z,45.48
2018-05-09T12:48:02.054Z,45.68
2018-05-09T12:49:02.057Z,45.51
2018-05-09T12:50:02.113Z,45.51
2018-05-09T12:51:02.093Z,45.89
2018-05-09T12:52:02.075Z,45.51
2018-05-09T12:53:02.083Z,45.61